sensor_id;sensor_type;location;lat;lon;timestamp;pressure;altitude;pressure_sealevel;temperature
24201;BMP280;2801;50.972;7.856;2022-07-23T00:01:40;97718.59;;;18.05
24201;BMP280;2801;50.972;7.856;2022-07-23T00:04:08;97722.47;;;18.04
24201;BMP280;2801;50.972;7.856;2022-07-23T00:06:35;97727.00;;;17.96
24201;BMP280;2801;50.972;7.856;2022-07-23T00:09:02;97746.41;;;17.98
24201;BMP280;2801;50.972;7.856;2022-07-23T00:11:29;97745.09;;;17.89
24201;BMP280;2801;50.972;7.856;2022-07-23T00:13:56;97759.19;;;17.98
24201;BMP280;2801;50.972;7.856;2022-07-23T00:16:25;97758.03;;;17.99
24201;BMP280;2801;50.972;7.856;2022-07-23T00:18:52;97737.81;;;17.93
24201;BMP280;2801;50.972;7.856;2022-07-23T00:21:19;97740.69;;;18.03
24201;BMP280;2801;50.972;7.856;2022-07-23T00:23:46;97729.09;;;18.06
24201;BMP280;2801;50.972;7.856;2022-07-23T00:26:13;97727.16;;;18.07
24201;BMP280;2801;50.972;7.856;2022-07-23T00:28:40;97727.16;;;18.07
24201;BMP280;2801;50.972;7.856;2022-07-23T00:31:07;97721.38;;;18.08
24201;BMP280;2801;50.972;7.856;2022-07-23T00:33:34;97718.66;;;18.08
24201;BMP280;2801;50.972;7.856;2022-07-23T00:36:01;97719.00;;;18.07
24201;BMP280;2801;50.972;7.856;2022-07-23T00:38:28;97726.75;;;18.05
24201;BMP280;2801;50.972;7.856;2022-07-23T00:40:55;97716.66;;;18.05
24201;BMP280;2801;50.972;7.856;2022-07-23T00:43:23;97731.44;;;18.08
24201;BMP280;2801;50.972;7.856;2022-07-23T00:45:50;97725.97;;;18.04
24201;BMP280;2801;50.972;7.856;2022-07-23T00:48:17;97723.97;;;18.01
24201;BMP280;2801;50.972;7.856;2022-07-23T00:50:44;97726.03;;;18.08
24201;BMP280;2801;50.972;7.856;2022-07-23T00:53:12;97728.34;;;18.09
24201;BMP280;2801;50.972;7.856;2022-07-23T00:55:39;97730.34;;;18.12
24201;BMP280;2801;50.972;7.856;2022-07-23T00:58:08;97731.53;;;18.15
24201;BMP280;2801;50.972;7.856;2022-07-23T01:00:35;97727.31;;;18.17
24201;BMP280;2801;50.972;7.856;2022-07-23T01:03:02;97710.97;;;18.14
24201;BMP280;2801;50.972;7.856;2022-07-23T01:05:29;97715.44;;;18.26
24201;BMP280;2801;50.972;7.856;2022-07-23T01:07:56;97718.06;;;18.22
24201;BMP280;2801;50.972;7.856;2022-07-23T01:10:24;97725.84;;;18.23
24201;BMP280;2801;50.972;7.856;2022-07-23T01:13:09;97726.50;;;18.13
24201;BMP280;2801;50.972;7.856;2022-07-23T01:15:38;97721.47;;;18.15
24201;BMP280;2801;50.972;7.856;2022-07-23T01:18:07;97711.78;;;18.14
24201;BMP280;2801;50.972;7.856;2022-07-23T01:20:35;97715.19;;;18.08
24201;BMP280;2801;50.972;7.856;2022-07-23T01:23:02;97716.19;;;18.00
24201;BMP280;2801;50.972;7.856;2022-07-23T01:25:29;97717.81;;;18.04
24201;BMP280;2801;50.972;7.856;2022-07-23T01:27:56;97727.50;;;18.05
24201;BMP280;2801;50.972;7.856;2022-07-23T01:30:23;97729.47;;;18.05
24201;BMP280;2801;50.972;7.856;2022-07-23T01:32:50;97724.75;;;18.02
24201;BMP280;2801;50.972;7.856;2022-07-23T01:35:17;97725.84;;;17.97
24201;BMP280;2801;50.972;7.856;2022-07-23T01:37:44;97714.59;;;17.95
24201;BMP280;2801;50.972;7.856;2022-07-23T01:40:11;97710.25;;;17.91
24201;BMP280;2801;50.972;7.856;2022-07-23T01:42:38;97713.75;;;17.91
24201;BMP280;2801;50.972;7.856;2022-07-23T01:45:06;97703.25;;;17.90
24201;BMP280;2801;50.972;7.856;2022-07-23T01:47:33;97703.66;;;17.92
24201;BMP280;2801;50.972;7.856;2022-07-23T01:50:00;97682.66;;;17.85
24201;BMP280;2801;50.972;7.856;2022-07-23T01:52:27;97685.84;;;17.91
24201;BMP280;2801;50.972;7.856;2022-07-23T01:54:54;97691.72;;;17.96
24201;BMP280;2801;50.972;7.856;2022-07-23T01:57:21;97701.44;;;17.97
24201;BMP280;2801;50.972;7.856;2022-07-23T01:59:49;97691.69;;;17.93
24201;BMP280;2801;50.972;7.856;2022-07-23T02:02:16;97701.78;;;17.96
24201;BMP280;2801;50.972;7.856;2022-07-23T02:04:43;97708.00;;;17.96
24201;BMP280;2801;50.972;7.856;2022-07-23T02:07:10;97703.66;;;17.92
24201;BMP280;2801;50.972;7.856;2022-07-23T02:09:36;97708.72;;;17.93
24201;BMP280;2801;50.972;7.856;2022-07-23T02:12:04;97699.84;;;17.93
24201;BMP280;2801;50.972;7.856;2022-07-23T02:14:31;97690.78;;;17.85
24201;BMP280;2801;50.972;7.856;2022-07-23T02:16:58;97685.69;;;17.80
24201;BMP280;2801;50.972;7.856;2022-07-23T02:19:25;97679.09;;;17.81
24201;BMP280;2801;50.972;7.856;2022-07-23T02:21:52;97673.69;;;17.81
24201;BMP280;2801;50.972;7.856;2022-07-23T02:24:21;97660.72;;;17.71
24201;BMP280;2801;50.972;7.856;2022-07-23T02:26:48;97665.13;;;17.79
24201;BMP280;2801;50.972;7.856;2022-07-23T02:29:15;97659.28;;;17.77
24201;BMP280;2801;50.972;7.856;2022-07-23T02:31:42;97661.56;;;17.75
24201;BMP280;2801;50.972;7.856;2022-07-23T02:34:09;97677.06;;;17.75
24201;BMP280;2801;50.972;7.856;2022-07-23T02:36:38;97677.34;;;17.70
24201;BMP280;2801;50.972;7.856;2022-07-23T02:39:06;97687.09;;;17.71
24201;BMP280;2801;50.972;7.856;2022-07-23T02:41:33;97683.56;;;17.70
24201;BMP280;2801;50.972;7.856;2022-07-23T02:44:00;97687.00;;;17.67
24201;BMP280;2801;50.972;7.856;2022-07-23T02:46:27;97691.22;;;17.65
24201;BMP280;2801;50.972;7.856;2022-07-23T02:48:55;97684.25;;;17.64
24201;BMP280;2801;50.972;7.856;2022-07-23T02:51:22;97684.63;;;17.62
24201;BMP280;2801;50.972;7.856;2022-07-23T02:53:48;97681.47;;;17.60
24201;BMP280;2801;50.972;7.856;2022-07-23T02:56:15;97674.13;;;17.61
24201;BMP280;2801;50.972;7.856;2022-07-23T02:58:42;97674.50;;;17.59
24201;BMP280;2801;50.972;7.856;2022-07-23T03:01:09;97669.75;;;17.53
24201;BMP280;2801;50.972;7.856;2022-07-23T03:03:36;97679.06;;;17.55
24201;BMP280;2801;50.972;7.856;2022-07-23T03:06:03;97681.38;;;17.53
24201;BMP280;2801;50.972;7.856;2022-07-23T03:08:30;97681.75;;;17.52
24201;BMP280;2801;50.972;7.856;2022-07-23T03:10:57;97674.69;;;17.47
24201;BMP280;2801;50.972;7.856;2022-07-23T03:13:24;97667.28;;;17.44
24201;BMP280;2801;50.972;7.856;2022-07-23T03:15:51;97671.97;;;17.47
24201;BMP280;2801;50.972;7.856;2022-07-23T03:18:18;97670.47;;;17.50
24201;BMP280;2801;50.972;7.856;2022-07-23T03:20:46;97663.47;;;17.49
24201;BMP280;2801;50.972;7.856;2022-07-23T03:23:12;97665.41;;;17.48
24201;BMP280;2801;50.972;7.856;2022-07-23T03:25:39;97671.66;;;17.52
24201;BMP280;2801;50.972;7.856;2022-07-23T03:28:06;97668.22;;;17.55
24201;BMP280;2801;50.972;7.856;2022-07-23T03:30:33;97648.84;;;17.53
24201;BMP280;2801;50.972;7.856;2022-07-23T03:33:00;97659.38;;;17.58
24201;BMP280;2801;50.972;7.856;2022-07-23T03:35:27;97664.00;;;17.58
24201;BMP280;2801;50.972;7.856;2022-07-23T03:37:54;97664.78;;;17.58
24201;BMP280;2801;50.972;7.856;2022-07-23T03:40:21;97655.81;;;17.54
24201;BMP280;2801;50.972;7.856;2022-07-23T03:42:48;97657.03;;;17.57
24201;BMP280;2801;50.972;7.856;2022-07-23T03:45:15;97644.44;;;17.45
24201;BMP280;2801;50.972;7.856;2022-07-23T03:47:42;97663.25;;;17.57
24201;BMP280;2801;50.972;7.856;2022-07-23T03:50:11;97660.81;;;17.52
24201;BMP280;2801;50.972;7.856;2022-07-23T03:52:38;97667.75;;;17.50
24201;BMP280;2801;50.972;7.856;2022-07-23T03:55:06;97669.22;;;17.44
24201;BMP280;2801;50.972;7.856;2022-07-23T03:57:33;97665.19;;;17.38
24201;BMP280;2801;50.972;7.856;2022-07-23T04:00:01;97670.19;;;17.36
24201;BMP280;2801;50.972;7.856;2022-07-23T04:02:27;97661.66;;;17.34
24201;BMP280;2801;50.972;7.856;2022-07-23T04:04:55;97668.50;;;17.28
24201;BMP280;2801;50.972;7.856;2022-07-23T04:07:22;97670.38;;;17.24
24201;BMP280;2801;50.972;7.856;2022-07-23T04:09:48;97676.50;;;17.21
24201;BMP280;2801;50.972;7.856;2022-07-23T04:12:16;97686.13;;;17.18
24201;BMP280;2801;50.972;7.856;2022-07-23T04:14:43;97686.88;;;17.15
24201;BMP280;2801;50.972;7.856;2022-07-23T04:17:11;97687.03;;;17.03
24201;BMP280;2801;50.972;7.856;2022-07-23T04:19:38;97687.28;;;16.95
24201;BMP280;2801;50.972;7.856;2022-07-23T04:22:11;97689.75;;;16.84
24201;BMP280;2801;50.972;7.856;2022-07-23T04:24:38;97687.63;;;16.74
24201;BMP280;2801;50.972;7.856;2022-07-23T04:27:06;97695.25;;;16.69
24201;BMP280;2801;50.972;7.856;2022-07-23T04:29:32;97684.28;;;16.62
24201;BMP280;2801;50.972;7.856;2022-07-23T04:32:00;97700.59;;;16.65
24201;BMP280;2801;50.972;7.856;2022-07-23T04:34:27;97690.56;;;16.66
24201;BMP280;2801;50.972;7.856;2022-07-23T04:36:54;97694.53;;;16.72
24201;BMP280;2801;50.972;7.856;2022-07-23T04:39:21;97696.03;;;16.69
24201;BMP280;2801;50.972;7.856;2022-07-23T04:41:48;97707.66;;;16.70
24201;BMP280;2801;50.972;7.856;2022-07-23T04:44:15;97708.34;;;16.67
24201;BMP280;2801;50.972;7.856;2022-07-23T04:46:42;97706.72;;;16.62
24201;BMP280;2801;50.972;7.856;2022-07-23T04:49:09;97716.19;;;16.72
24201;BMP280;2801;50.972;7.856;2022-07-23T04:51:36;97719.38;;;16.77
24201;BMP280;2801;50.972;7.856;2022-07-23T04:54:03;97715.28;;;16.83
24201;BMP280;2801;50.972;7.856;2022-07-23T04:56:30;97723.19;;;16.92
24201;BMP280;2801;50.972;7.856;2022-07-23T04:58:57;97724.03;;;16.96
24201;BMP280;2801;50.972;7.856;2022-07-23T05:01:25;97724.59;;;17.05
24201;BMP280;2801;50.972;7.856;2022-07-23T05:03:52;97714.69;;;17.12
24201;BMP280;2801;50.972;7.856;2022-07-23T05:06:19;97724.91;;;17.22
24201;BMP280;2801;50.972;7.856;2022-07-23T05:08:46;97726.75;;;17.37
24201;BMP280;2801;50.972;7.856;2022-07-23T05:11:13;97724.44;;;17.58
24201;BMP280;2801;50.972;7.856;2022-07-23T05:13:39;97701.28;;;17.87
24201;BMP280;2801;50.972;7.856;2022-07-23T05:16:07;97718.78;;;18.42
24201;BMP280;2801;50.972;7.856;2022-07-23T05:18:34;97708.78;;;18.79
24201;BMP280;2801;50.972;7.856;2022-07-23T05:21:00;97718.41;;;19.06
24201;BMP280;2801;50.972;7.856;2022-07-23T05:23:28;97722.22;;;19.31
24201;BMP280;2801;50.972;7.856;2022-07-23T05:25:55;97722.84;;;19.57
24201;BMP280;2801;50.972;7.856;2022-07-23T05:28:22;97727.25;;;19.69
24201;BMP280;2801;50.972;7.856;2022-07-23T05:30:48;97724.97;;;19.74
24201;BMP280;2801;50.972;7.856;2022-07-23T05:33:19;97730.84;;;19.80
24201;BMP280;2801;50.972;7.856;2022-07-23T05:35:46;97729.66;;;19.81
24201;BMP280;2801;50.972;7.856;2022-07-23T05:38:13;97733.44;;;19.69
24201;BMP280;2801;50.972;7.856;2022-07-23T05:40:40;97726.88;;;19.70
24201;BMP280;2801;50.972;7.856;2022-07-23T05:43:07;97737.00;;;19.77
24201;BMP280;2801;50.972;7.856;2022-07-23T05:45:34;97733.13;;;19.78
24201;BMP280;2801;50.972;7.856;2022-07-23T05:48:00;97741.78;;;19.87
24201;BMP280;2801;50.972;7.856;2022-07-23T05:50:27;97745.34;;;19.98
24201;BMP280;2801;50.972;7.856;2022-07-23T05:52:54;97732.94;;;20.04
24201;BMP280;2801;50.972;7.856;2022-07-23T05:55:21;97736.59;;;20.18
24201;BMP280;2801;50.972;7.856;2022-07-23T05:57:48;97745.56;;;20.22
24201;BMP280;2801;50.972;7.856;2022-07-23T06:00:15;97744.47;;;20.34
24201;BMP280;2801;50.972;7.856;2022-07-23T06:02:42;97744.19;;;20.53
24201;BMP280;2801;50.972;7.856;2022-07-23T06:05:09;97737.66;;;20.71
24201;BMP280;2801;50.972;7.856;2022-07-23T06:07:36;97738.44;;;20.65
24201;BMP280;2801;50.972;7.856;2022-07-23T06:10:04;97751.25;;;20.61
24201;BMP280;2801;50.972;7.856;2022-07-23T06:12:31;97753.88;;;20.47
24201;BMP280;2801;50.972;7.856;2022-07-23T06:14:58;97754.06;;;20.14
24201;BMP280;2801;50.972;7.856;2022-07-23T06:17:26;97750.16;;;20.11
24201;BMP280;2801;50.972;7.856;2022-07-23T06:19:54;97748.13;;;20.05
24201;BMP280;2801;50.972;7.856;2022-07-23T06:22:22;97755.53;;;20.08
24201;BMP280;2801;50.972;7.856;2022-07-23T06:24:49;97758.03;;;20.23
24201;BMP280;2801;50.972;7.856;2022-07-23T06:27:18;97761.22;;;20.36
24201;BMP280;2801;50.972;7.856;2022-07-23T06:29:52;97758.91;;;20.41
24201;BMP280;2801;50.972;7.856;2022-07-23T06:32:20;97753.84;;;20.40
24201;BMP280;2801;50.972;7.856;2022-07-23T06:34:47;97762.47;;;20.45
24201;BMP280;2801;50.972;7.856;2022-07-23T06:37:15;97767.06;;;20.41
24201;BMP280;2801;50.972;7.856;2022-07-23T06:39:43;97765.13;;;20.42
24201;BMP280;2801;50.972;7.856;2022-07-23T06:42:11;97764.72;;;20.36
24201;BMP280;2801;50.972;7.856;2022-07-23T06:44:38;97748.31;;;20.26
24201;BMP280;2801;50.972;7.856;2022-07-23T06:47:05;97769.03;;;20.41
24201;BMP280;2801;50.972;7.856;2022-07-23T06:49:32;97765.59;;;20.51
24201;BMP280;2801;50.972;7.856;2022-07-23T06:51:59;97772.66;;;20.59
24201;BMP280;2801;50.972;7.856;2022-07-23T06:54:26;97768.81;;;20.67
24201;BMP280;2801;50.972;7.856;2022-07-23T06:56:53;97772.06;;;20.93
24201;BMP280;2801;50.972;7.856;2022-07-23T06:59:20;97771.03;;;21.22
24201;BMP280;2801;50.972;7.856;2022-07-23T07:01:47;97765.63;;;21.43
24201;BMP280;2801;50.972;7.856;2022-07-23T07:04:14;97769.50;;;21.42
24201;BMP280;2801;50.972;7.856;2022-07-23T07:06:41;97773.84;;;21.61
24201;BMP280;2801;50.972;7.856;2022-07-23T07:09:08;97766.09;;;21.77
24201;BMP280;2801;50.972;7.856;2022-07-23T07:11:35;97771.19;;;22.10
24201;BMP280;2801;50.972;7.856;2022-07-23T07:14:02;97771.59;;;22.47
24201;BMP280;2801;50.972;7.856;2022-07-23T07:16:28;97770.72;;;22.85
24201;BMP280;2801;50.972;7.856;2022-07-23T07:18:59;97769.03;;;23.23
24201;BMP280;2801;50.972;7.856;2022-07-23T07:21:26;97769.41;;;23.14
24201;BMP280;2801;50.972;7.856;2022-07-23T07:23:53;97778.09;;;22.95
24201;BMP280;2801;50.972;7.856;2022-07-23T07:26:20;97772.69;;;22.78
24201;BMP280;2801;50.972;7.856;2022-07-23T07:28:47;97768.81;;;22.72
24201;BMP280;2801;50.972;7.856;2022-07-23T07:31:14;97766.91;;;22.51
24201;BMP280;2801;50.972;7.856;2022-07-23T07:33:41;97775.47;;;22.53
24201;BMP280;2801;50.972;7.856;2022-07-23T07:36:08;97768.03;;;22.57
24201;BMP280;2801;50.972;7.856;2022-07-23T07:38:35;97774.28;;;22.65
24201;BMP280;2801;50.972;7.856;2022-07-23T07:41:02;97773.84;;;22.73
24201;BMP280;2801;50.972;7.856;2022-07-23T07:43:29;97777.31;;;22.98
24201;BMP280;2801;50.972;7.856;2022-07-23T07:45:56;97781.09;;;23.32
24201;BMP280;2801;50.972;7.856;2022-07-23T07:48:23;97784.09;;;23.59
24201;BMP280;2801;50.972;7.856;2022-07-23T07:50:50;97777.72;;;23.76
24201;BMP280;2801;50.972;7.856;2022-07-23T07:53:18;97785.16;;;23.75
24201;BMP280;2801;50.972;7.856;2022-07-23T07:55:45;97772.28;;;23.69
24201;BMP280;2801;50.972;7.856;2022-07-23T07:58:17;97779.69;;;23.72
24201;BMP280;2801;50.972;7.856;2022-07-23T08:00:44;97781.31;;;23.66
24201;BMP280;2801;50.972;7.856;2022-07-23T08:03:11;97788.00;;;23.54
24201;BMP280;2801;50.972;7.856;2022-07-23T08:05:39;97788.47;;;23.39
24201;BMP280;2801;50.972;7.856;2022-07-23T08:08:06;97780.34;;;23.28
24201;BMP280;2801;50.972;7.856;2022-07-23T08:10:33;97788.56;;;23.14
24201;BMP280;2801;50.972;7.856;2022-07-23T08:13:00;97800.72;;;23.10
24201;BMP280;2801;50.972;7.856;2022-07-23T08:15:29;97803.47;;;22.96
24201;BMP280;2801;50.972;7.856;2022-07-23T08:17:58;97801.53;;;22.93
24201;BMP280;2801;50.972;7.856;2022-07-23T08:20:26;97785.94;;;22.83
24201;BMP280;2801;50.972;7.856;2022-07-23T08:22:58;97806.22;;;22.96
24201;BMP280;2801;50.972;7.856;2022-07-23T08:25:33;97812.88;;;22.88
24201;BMP280;2801;50.972;7.856;2022-07-23T08:28:05;97815.63;;;22.81
24201;BMP280;2801;50.972;7.856;2022-07-23T08:30:33;97816.78;;;22.83
24201;BMP280;2801;50.972;7.856;2022-07-23T08:33:13;97822.66;;;22.85
24201;BMP280;2801;50.972;7.856;2022-07-23T08:36:01;97812.50;;;22.89
24201;BMP280;2801;50.972;7.856;2022-07-23T08:38:30;97810.13;;;22.95
24201;BMP280;2801;50.972;7.856;2022-07-23T08:40:58;97817.91;;;23.07
24201;BMP280;2801;50.972;7.856;2022-07-23T08:43:30;97814.75;;;23.12
24201;BMP280;2801;50.972;7.856;2022-07-23T08:46:00;97814.03;;;22.97
24201;BMP280;2801;50.972;7.856;2022-07-23T08:48:31;97826.91;;;23.04
24201;BMP280;2801;50.972;7.856;2022-07-23T08:51:02;97824.97;;;22.97
24201;BMP280;2801;50.972;7.856;2022-07-23T08:53:32;97821.06;;;22.95
24201;BMP280;2801;50.972;7.856;2022-07-23T08:56:03;97827.28;;;23.02
24201;BMP280;2801;50.972;7.856;2022-07-23T08:58:31;97827.25;;;23.13
24201;BMP280;2801;50.972;7.856;2022-07-23T09:00:59;97819.81;;;23.24
24201;BMP280;2801;50.972;7.856;2022-07-23T09:03:35;97827.63;;;23.29
24201;BMP280;2801;50.972;7.856;2022-07-23T09:06:02;97819.00;;;23.34
24201;BMP280;2801;50.972;7.856;2022-07-23T09:08:42;97827.19;;;23.34
24201;BMP280;2801;50.972;7.856;2022-07-23T09:11:17;97821.38;;;23.28
24201;BMP280;2801;50.972;7.856;2022-07-23T09:13:52;97829.59;;;23.25
24201;BMP280;2801;50.972;7.856;2022-07-23T09:16:27;97821.00;;;23.26
24201;BMP280;2801;50.972;7.856;2022-07-23T09:19:02;97808.88;;;23.24
24201;BMP280;2801;50.972;7.856;2022-07-23T09:21:39;97826.84;;;23.28
24201;BMP280;2801;50.972;7.856;2022-07-23T09:24:12;97830.38;;;23.29
24201;BMP280;2801;50.972;7.856;2022-07-23T09:26:41;97819.81;;;23.27
24201;BMP280;2801;50.972;7.856;2022-07-23T09:29:24;97823.66;;;23.40
24201;BMP280;2801;50.972;7.856;2022-07-23T09:34:25;97817.28;;;23.61
24201;BMP280;2801;50.972;7.856;2022-07-23T09:37:17;97832.91;;;23.71
24201;BMP280;2801;50.972;7.856;2022-07-23T09:39:47;97816.06;;;23.72
24201;BMP280;2801;50.972;7.856;2022-07-23T09:42:25;97824.16;;;23.93
24201;BMP280;2801;50.972;7.856;2022-07-23T09:44:57;97831.84;;;24.12
24201;BMP280;2801;50.972;7.856;2022-07-23T09:47:30;97826.72;;;24.21
24201;BMP280;2801;50.972;7.856;2022-07-23T09:50:19;97827.38;;;24.36
24201;BMP280;2801;50.972;7.856;2022-07-23T09:52:53;97818.28;;;24.46
24201;BMP280;2801;50.972;7.856;2022-07-23T09:55:32;97820.63;;;24.44
24201;BMP280;2801;50.972;7.856;2022-07-23T09:58:06;97826.06;;;24.51
24201;BMP280;2801;50.972;7.856;2022-07-23T10:00:42;97829.91;;;24.60
24201;BMP280;2801;50.972;7.856;2022-07-23T10:03:13;97822.03;;;24.66
24201;BMP280;2801;50.972;7.856;2022-07-23T10:05:41;97824.84;;;24.55
24201;BMP280;2801;50.972;7.856;2022-07-23T10:08:12;97818.06;;;24.26
24201;BMP280;2801;50.972;7.856;2022-07-23T10:10:40;97830.28;;;24.15
24201;BMP280;2801;50.972;7.856;2022-07-23T10:13:07;97835.66;;;24.29
24201;BMP280;2801;50.972;7.856;2022-07-23T10:16:03;97833.09;;;24.55
24201;BMP280;2801;50.972;7.856;2022-07-23T10:18:31;97816.75;;;24.86
24201;BMP280;2801;50.972;7.856;2022-07-23T10:21:00;97814.56;;;25.07
24201;BMP280;2801;50.972;7.856;2022-07-23T10:23:44;97816.84;;;25.12
24201;BMP280;2801;50.972;7.856;2022-07-23T10:26:14;97826.13;;;25.22
24201;BMP280;2801;50.972;7.856;2022-07-23T10:29:22;97826.13;;;25.22
24201;BMP280;2801;50.972;7.856;2022-07-23T10:32:43;97830.53;;;25.49
24201;BMP280;2801;50.972;7.856;2022-07-23T10:35:52;97819.06;;;25.58
24201;BMP280;2801;50.972;7.856;2022-07-23T10:38:28;97818.91;;;25.68
24201;BMP280;2801;50.972;7.856;2022-07-23T10:41:04;97812.66;;;25.68
24201;BMP280;2801;50.972;7.856;2022-07-23T10:43:32;97817.44;;;25.60
24201;BMP280;2801;50.972;7.856;2022-07-23T10:46:24;97815.09;;;25.29
24201;BMP280;2801;50.972;7.856;2022-07-23T10:49:21;97816.25;;;25.61
24201;BMP280;2801;50.972;7.856;2022-07-23T10:57:14;97796.69;;;26.12
24201;BMP280;2801;50.972;7.856;2022-07-23T11:02:32;97802.84;;;26.20
24201;BMP280;2801;50.972;7.856;2022-07-23T11:05:08;97793.47;;;26.17
24201;BMP280;2801;50.972;7.856;2022-07-23T11:10:44;97807.06;;;26.28
24201;BMP280;2801;50.972;7.856;2022-07-23T11:32:18;97795.88;;;26.15
24201;BMP280;2801;50.972;7.856;2022-07-23T11:34:48;97792.50;;;26.04
24201;BMP280;2801;50.972;7.856;2022-07-23T11:37:40;97794.53;;;26.00
24201;BMP280;2801;50.972;7.856;2022-07-23T11:40:14;97793.06;;;25.92
24201;BMP280;2801;50.972;7.856;2022-07-23T11:43:03;97802.97;;;25.86
24201;BMP280;2801;50.972;7.856;2022-07-23T11:45:38;97803.06;;;25.79
24201;BMP280;2801;50.972;7.856;2022-07-23T11:48:09;97795.59;;;25.80
24201;BMP280;2801;50.972;7.856;2022-07-23T11:50:36;97783.16;;;25.72
24201;BMP280;2801;50.972;7.856;2022-07-23T11:53:03;97788.13;;;25.80
24201;BMP280;2801;50.972;7.856;2022-07-23T11:55:30;97795.78;;;25.96
24201;BMP280;2801;50.972;7.856;2022-07-23T11:57:58;97796.69;;;26.12
24201;BMP280;2801;50.972;7.856;2022-07-23T12:00:30;97797.91;;;26.11
24201;BMP280;2801;50.972;7.856;2022-07-23T12:03:01;97798.22;;;26.17
24201;BMP280;2801;50.972;7.856;2022-07-23T12:05:33;97796.06;;;26.28
24201;BMP280;2801;50.972;7.856;2022-07-23T12:08:06;97790.59;;;26.47
24201;BMP280;2801;50.972;7.856;2022-07-23T12:10:39;97799.06;;;26.60
24201;BMP280;2801;50.972;7.856;2022-07-23T12:13:20;97796.47;;;26.49
24201;BMP280;2801;50.972;7.856;2022-07-23T12:15:57;97804.25;;;26.31
24201;BMP280;2801;50.972;7.856;2022-07-23T12:18:27;97798.75;;;26.31
24201;BMP280;2801;50.972;7.856;2022-07-23T12:20:57;97801.91;;;26.30
24201;BMP280;2801;50.972;7.856;2022-07-23T12:23:29;97803.81;;;26.33
24201;BMP280;2801;50.972;7.856;2022-07-23T12:26:02;97805.75;;;26.36
24201;BMP280;2801;50.972;7.856;2022-07-23T12:28:31;97807.41;;;26.30
24201;BMP280;2801;50.972;7.856;2022-07-23T12:31:04;97803.56;;;26.24
24201;BMP280;2801;50.972;7.856;2022-07-23T12:33:34;97802.81;;;26.23
24201;BMP280;2801;50.972;7.856;2022-07-23T12:36:06;97806.28;;;26.27
24201;BMP280;2801;50.972;7.856;2022-07-23T12:38:46;97808.06;;;26.37
24201;BMP280;2801;50.972;7.856;2022-07-23T12:41:14;97805.38;;;26.34
24201;BMP280;2801;50.972;7.856;2022-07-23T12:43:46;97806.69;;;26.26
24201;BMP280;2801;50.972;7.856;2022-07-23T12:46:21;97802.13;;;26.16
24201;BMP280;2801;50.972;7.856;2022-07-23T12:51:24;97808.91;;;26.11
24201;BMP280;2801;50.972;7.856;2022-07-23T12:53:59;97807.94;;;26.21
24201;BMP280;2801;50.972;7.856;2022-07-23T12:56:34;97805.78;;;26.32
24201;BMP280;2801;50.972;7.856;2022-07-23T12:59:05;97804.72;;;26.49
24201;BMP280;2801;50.972;7.856;2022-07-23T13:01:42;97807.13;;;26.70
24201;BMP280;2801;50.972;7.856;2022-07-23T13:04:18;97805.91;;;26.94
24201;BMP280;2801;50.972;7.856;2022-07-23T13:06:54;97801.53;;;27.16
24201;BMP280;2801;50.972;7.856;2022-07-23T13:09:28;97777.59;;;27.13
24201;BMP280;2801;50.972;7.856;2022-07-23T13:11:59;97803.16;;;27.33
24201;BMP280;2801;50.972;7.856;2022-07-23T13:14:27;97798.34;;;27.57
24201;BMP280;2801;50.972;7.856;2022-07-23T13:16:55;97796.97;;;27.85
24201;BMP280;2801;50.972;7.856;2022-07-23T13:19:25;97796.03;;;28.07
24201;BMP280;2801;50.972;7.856;2022-07-23T13:21:54;97797.78;;;28.17
24201;BMP280;2801;50.972;7.856;2022-07-23T13:24:21;97799.56;;;28.24
24201;BMP280;2801;50.972;7.856;2022-07-23T13:26:48;97807.69;;;28.15
24201;BMP280;2801;50.972;7.856;2022-07-23T13:29:17;97804.88;;;27.99
24201;BMP280;2801;50.972;7.856;2022-07-23T13:31:46;97802.41;;;28.04
24201;BMP280;2801;50.972;7.856;2022-07-23T13:34:15;97811.81;;;28.23
24201;BMP280;2801;50.972;7.856;2022-07-23T13:36:41;97805.88;;;28.40
24201;BMP280;2801;50.972;7.856;2022-07-23T13:39:10;97808.09;;;28.61
24201;BMP280;2801;50.972;7.856;2022-07-23T13:41:40;97808.72;;;28.53
24201;BMP280;2801;50.972;7.856;2022-07-23T13:44:17;97811.13;;;28.51
24201;BMP280;2801;50.972;7.856;2022-07-23T13:46:48;97806.28;;;28.39
24201;BMP280;2801;50.972;7.856;2022-07-23T13:49:15;97797.75;;;28.33
24201;BMP280;2801;50.972;7.856;2022-07-23T13:51:42;97806.41;;;28.51
24201;BMP280;2801;50.972;7.856;2022-07-23T13:54:10;97808.63;;;28.56
24201;BMP280;2801;50.972;7.856;2022-07-23T13:56:37;97812.00;;;28.64
24201;BMP280;2801;50.972;7.856;2022-07-23T13:59:04;97804.66;;;28.41
24201;BMP280;2801;50.972;7.856;2022-07-23T14:01:33;97811.63;;;28.14
24201;BMP280;2801;50.972;7.856;2022-07-23T14:04:11;97805.50;;;27.90
24201;BMP280;2801;50.972;7.856;2022-07-23T14:06:39;97813.09;;;27.66
24201;BMP280;2801;50.972;7.856;2022-07-23T14:09:06;97814.31;;;27.46
24201;BMP280;2801;50.972;7.856;2022-07-23T14:11:34;97815.00;;;27.50
24201;BMP280;2801;50.972;7.856;2022-07-23T14:14:02;97816.84;;;27.56
24201;BMP280;2801;50.972;7.856;2022-07-23T14:16:29;97817.06;;;27.65
24201;BMP280;2801;50.972;7.856;2022-07-23T14:18:56;97821.22;;;27.54
24201;BMP280;2801;50.972;7.856;2022-07-23T14:21:23;97826.16;;;27.23
24201;BMP280;2801;50.972;7.856;2022-07-23T14:23:51;97826.63;;;26.99
24201;BMP280;2801;50.972;7.856;2022-07-23T14:26:19;97822.38;;;26.75
24201;BMP280;2801;50.972;7.856;2022-07-23T14:28:46;97816.78;;;26.78
24201;BMP280;2801;50.972;7.856;2022-07-23T14:31:14;97814.78;;;27.02
24201;BMP280;2801;50.972;7.856;2022-07-23T14:33:48;97815.31;;;27.36
24201;BMP280;2801;50.972;7.856;2022-07-23T14:36:16;97808.00;;;27.65
24201;BMP280;2801;50.972;7.856;2022-07-23T14:38:43;97802.91;;;27.83
24201;BMP280;2801;50.972;7.856;2022-07-23T14:41:10;97808.97;;;28.10
24201;BMP280;2801;50.972;7.856;2022-07-23T14:43:37;97803.03;;;28.12
24201;BMP280;2801;50.972;7.856;2022-07-23T14:46:05;97799.75;;;28.17
24201;BMP280;2801;50.972;7.856;2022-07-23T14:48:32;97800.16;;;28.31
24201;BMP280;2801;50.972;7.856;2022-07-23T14:50:59;97802.44;;;28.52
24201;BMP280;2801;50.972;7.856;2022-07-23T14:53:26;97802.25;;;28.59
24201;BMP280;2801;50.972;7.856;2022-07-23T14:55:53;97808.69;;;28.69
24201;BMP280;2801;50.972;7.856;2022-07-23T14:58:21;97797.75;;;28.65
24201;BMP280;2801;50.972;7.856;2022-07-23T15:00:48;97802.31;;;28.72
24201;BMP280;2801;50.972;7.856;2022-07-23T15:03:15;97796.81;;;28.72
24201;BMP280;2801;50.972;7.856;2022-07-23T15:05:42;97795.72;;;28.82
24201;BMP280;2801;50.972;7.856;2022-07-23T15:08:09;97789.03;;;28.83
24201;BMP280;2801;50.972;7.856;2022-07-23T15:10:36;97791.25;;;28.88